Time;durP1;ratioP1;P1;durP2;ratioP2;P2;SDS_P1;SDS_P2;PMS_P1;PMS_P2;Temp;Humidity;BMP_temperature;BMP_pressure;BME280_temperature;BME280_humidity;BME280_pressure;Samples;Min_cycle;Max_cycle;Signal;HPM_P1;HPM_P2
2023/05/13 00:01:53;;;;;;;;;;;;;;;15.82;100.00;-18453.34;5007878;28;19965;-80
2023/05/13 00:04:19;;;;;;;;;;;;;;;15.86;100.00;-18454.44;5010007;28;19956;-81
2023/05/13 00:06:44;;;;;;;;;;;;;;;15.80;100.00;-18452.78;5004711;28;19937;-81
2023/05/13 00:09:10;;;;;;;;;;;;;;;15.84;100.00;-18453.75;5010801;28;19917;-80
2023/05/13 00:11:35;;;;;;;;;;;;;;;15.55;100.00;-18446.09;5006007;28;19922;-81
2023/05/13 00:14:01;;;;;;;;;;;;;;;15.50;100.00;-18444.72;5006092;28;19929;-81
2023/05/13 00:16:27;;;;;;;;;;;;;;;15.45;100.00;-18443.50;5004465;28;19985;-81
2023/05/13 00:18:53;;;;;;;;;;;;;;;15.43;100.00;-18442.94;5005293;28;19918;-81
2023/05/13 00:21:18;;;;;;;;;;;;;;;15.56;100.00;-18446.34;5004253;28;19947;-81
2023/05/13 00:23:43;;;;;;;;;;;;;;;15.47;100.00;-18444.03;5007305;28;19977;-81
2023/05/13 00:26:09;;;;;;;;;;;;;;;15.48;100.00;-18444.31;5004090;28;19918;-81
2023/05/13 00:28:34;;;;;;;;;;;;;;;15.34;100.00;-18440.63;5012081;28;19921;-81
2023/05/13 00:30:59;;;;;;;;;;;;;;;15.28;100.00;-18438.84;5011865;28;19926;-81
2023/05/13 00:33:24;;;;;;;;;;;;;;;15.28;100.00;-18438.84;5004820;28;19922;-81
2023/05/13 00:35:50;;;;;;;;;;;;;;;15.25;100.00;-18438.16;5045840;28;19924;-81
2023/05/13 00:38:16;;;;;;;;;;;;;;;15.15;100.00;-18435.41;5004597;28;19960;-81
2023/05/13 00:40:43;;;;;;;;;;;;;;;15.23;100.00;-18437.47;5012292;28;19924;-81
2023/05/13 00:43:08;;;;;;;;;;;;;;;14.93;100.00;-18429.53;5011151;28;20000;-81
2023/05/13 00:45:35;;;;;;;;;;;;;;;14.69;100.00;-18422.97;5031578;28;19952;-81
2023/05/13 00:48:00;;;;;;;;;;;;;;;14.71;100.00;-18423.50;5012470;28;19921;-81
2023/05/13 00:50:26;;;;;;;;;;;;;;;14.70;100.00;-18423.25;5016879;28;19917;-81
2023/05/13 00:52:52;;;;;;;;;;;;;;;14.78;100.00;-18425.44;5018726;28;19921;-81
2023/05/13 00:55:17;;;;;;;;;;;;;;;14.69;100.00;-18422.97;5017043;28;19975;-81
2023/05/13 00:57:42;;;;;;;;;;;;;;;14.64;100.00;-18421.72;5019714;28;19918;-81
2023/05/13 01:00:09;;;;;;;;;;;;;;;14.64;100.00;-18421.88;5014696;28;19929;-81
2023/05/13 01:02:43;;;;;;;;;;;;;;;14.65;100.00;-18422.00;5014247;28;20005;-81
2023/05/13 01:05:16;;;;;;;;;;;;;;;14.78;100.00;-18425.44;5011157;28;19952;-81
2023/05/13 01:07:50;;;;;;;;;;;;;;;14.44;100.00;-18416.38;5015811;28;19917;-81
2023/05/13 01:10:22;;;;;;;;;;;;;;;14.32;100.00;-18413.25;5000822;28;19989;-81
2023/05/13 01:12:50;;;;;;;;;;;;;;;14.54;100.00;-18419.00;5026984;28;20673;-81
2023/05/13 01:15:20;;;;;;;;;;;;;;;14.57;100.00;-18419.97;5016921;28;19921;-81
2023/05/13 01:18:04;;;;;;;;;;;;;;;14.52;100.00;-18418.59;5013426;28;19944;-81
2023/05/13 01:20:29;;;;;;;;;;;;;;;14.43;100.00;-18416.13;5013991;28;19937;-81
2023/05/13 01:22:55;;;;;;;;;;;;;;;14.40;100.00;-18415.28;5016260;28;19932;-81
2023/05/13 01:25:21;;;;;;;;;;;;;;;14.38;100.00;-18414.75;5012513;28;19956;-82
2023/05/13 01:27:46;;;;;;;;;;;;;;;14.34;100.00;-18413.66;5017753;28;19921;-81
2023/05/13 01:30:11;;;;;;;;;;;;;;;14.32;100.00;-18413.09;5033378;28;19952;-81
2023/05/13 01:32:37;;;;;;;;;;;;;;;14.26;100.00;-18411.47;5015826;28;20314;-81
2023/05/13 01:35:03;;;;;;;;;;;;;;;14.34;100.00;-18413.66;5009723;28;19918;-81
2023/05/13 01:37:28;;;;;;;;;;;;;;;14.35;100.00;-18413.94;5005314;28;19922;-81
2023/05/13 01:39:54;;;;;;;;;;;;;;;14.21;100.00;-18410.38;5007895;28;19917;-81
2023/05/13 01:42:19;;;;;;;;;;;;;;;14.23;100.00;-18410.91;5011275;28;20376;-81
2023/05/13 01:44:45;;;;;;;;;;;;;;;14.13;100.00;-18408.19;5019142;28;20036;-81
2023/05/13 01:47:10;;;;;;;;;;;;;;;14.12;100.00;-18407.91;5013780;28;19924;-81
2023/05/13 01:49:36;;;;;;;;;;;;;;;14.07;100.00;-18406.41;5013901;28;19928;-81
2023/05/13 01:52:03;;;;;;;;;;;;;;;14.11;100.00;-18407.50;5018384;28;19917;-81
2023/05/13 01:54:28;;;;;;;;;;;;;;;13.85;100.00;-18400.50;5011344;28;19918;-81
2023/05/13 01:56:53;;;;;;;;;;;;;;;14.03;100.00;-18405.31;5012123;28;19921;-81
2023/05/13 01:59:18;;;;;;;;;;;;;;;14.08;100.00;-18406.81;5021168;28;19918;-81
2023/05/13 02:01:44;;;;;;;;;;;;;;;14.13;100.00;-18408.03;5007773;28;19922;-81
2023/05/13 02:04:10;;;;;;;;;;;;;;;14.09;100.00;-18406.94;5015544;28;19918;-81
2023/05/13 02:06:35;;;;;;;;;;;;;;;14.09;100.00;-18406.94;5005601;28;19921;-79
2023/05/13 02:09:00;;;;;;;;;;;;;;;14.06;100.00;-18406.25;5011755;28;20858;-79
2023/05/13 02:11:26;;;;;;;;;;;;;;;14.10;100.00;-18407.34;5009826;28;19976;-79
2023/05/13 02:13:51;;;;;;;;;;;;;;;14.30;100.00;-18412.56;5006879;28;19976;-79
2023/05/13 02:16:17;;;;;;;;;;;;;;;13.95;100.00;-18403.25;5041841;28;19917;-79
2023/05/13 02:18:42;;;;;;;;;;;;;;;13.71;100.00;-18396.81;5013634;28;19917;-79
2023/05/13 02:21:07;;;;;;;;;;;;;;;13.69;100.00;-18396.41;5008228;28;20352;-80
2023/05/13 02:23:32;;;;;;;;;;;;;;;13.67;100.00;-18395.84;5003250;28;19921;-79
2023/05/13 02:25:58;;;;;;;;;;;;;;;13.78;100.00;-18398.72;5004862;28;19918;-79
2023/05/13 02:28:23;;;;;;;;;;;;;;;13.85;100.00;-18400.50;5006846;28;20285;-80
2023/05/13 02:30:48;;;;;;;;;;;;;;;13.62;100.00;-18394.34;5007653;28;19921;-80
2023/05/13 02:33:13;;;;;;;;;;;;;;;13.41;100.00;-18388.72;5007591;28;19918;-79
2023/05/13 02:35:39;;;;;;;;;;;;;;;13.39;100.00;-18388.19;5009125;28;20004;-80
2023/05/13 02:38:04;;;;;;;;;;;;;;;13.41;100.00;-18388.72;5006519;28;19960;-80
2023/05/13 02:40:29;;;;;;;;;;;;;;;13.44;100.00;-18389.69;4996773;28;19969;-80
2023/05/13 02:42:54;;;;;;;;;;;;;;;13.40;100.00;-18388.59;5006726;28;19948;-79
2023/05/13 02:45:20;;;;;;;;;;;;;;;13.30;100.00;-18385.97;5005955;28;20411;-80
2023/05/13 02:47:45;;;;;;;;;;;;;;;13.36;100.00;-18387.50;5006461;28;19925;-80
2023/05/13 02:50:11;;;;;;;;;;;;;;;13.27;100.00;-18385.16;5001587;28;19921;-80
2023/05/13 02:52:38;;;;;;;;;;;;;;;13.28;100.00;-18385.28;5004561;28;19949;-80
2023/05/13 02:55:03;;;;;;;;;;;;;;;13.06;100.00;-18379.41;5000763;28;20385;-80
2023/05/13 02:57:28;;;;;;;;;;;;;;;13.09;100.00;-18380.22;5001716;28;19959;-80
2023/05/13 02:59:53;;;;;;;;;;;;;;;13.03;100.00;-18378.72;5006839;28;19925;-79
2023/05/13 03:02:19;;;;;;;;;;;;;;;12.97;100.00;-18376.94;5008930;28;19925;-80
2023/05/13 03:04:44;;;;;;;;;;;;;;;12.99;100.00;-18377.47;5009078;28;19917;-80
2023/05/13 03:07:10;;;;;;;;;;;;;;;12.86;100.00;-18374.19;5008389;28;19925;-80
2023/05/13 03:09:38;;;;;;;;;;;;;;;12.81;100.00;-18372.81;5006359;28;20081;-80
2023/05/13 03:12:03;;;;;;;;;;;;;;;12.78;100.00;-18372.00;5003639;28;19917;-80
2023/05/13 03:14:29;;;;;;;;;;;;;;;12.80;100.00;-18372.53;5006973;28;19926;-80
2023/05/13 03:16:54;;;;;;;;;;;;;;;12.83;100.00;-18373.22;5007342;28;19926;-79
2023/05/13 03:19:19;;;;;;;;;;;;;;;12.81;100.00;-18372.81;5009673;28;19923;-80
2023/05/13 03:21:45;;;;;;;;;;;;;;;12.83;100.00;-18373.38;5005546;28;19925;-80
2023/05/13 03:24:10;;;;;;;;;;;;;;;12.84;100.00;-18373.63;5006131;28;19925;-79
2023/05/13 03:26:35;;;;;;;;;;;;;;;12.91;100.00;-18375.28;5007288;28;20439;-80
2023/05/13 03:29:00;;;;;;;;;;;;;;;13.01;100.00;-18378.03;5007079;28;19948;-80
2023/05/13 03:31:26;;;;;;;;;;;;;;;12.80;100.00;-18372.53;5005098;28;20004;-80
2023/05/13 03:33:51;;;;;;;;;;;;;;;12.91;100.00;-18375.28;5001942;28;20444;-80
2023/05/13 03:36:16;;;;;;;;;;;;;;;13.10;100.00;-18380.50;5005303;28;19917;-80
2023/05/13 03:38:41;;;;;;;;;;;;;;;13.17;100.00;-18382.28;5007508;28;19923;-80
2023/05/13 03:41:07;;;;;;;;;;;;;;;13.23;100.00;-18384.06;5021212;28;19940;-79
2023/05/13 03:43:32;;;;;;;;;;;;;;;12.91;100.00;-18375.41;5006798;28;20300;-79
2023/05/13 03:45:58;;;;;;;;;;;;;;;12.94;100.00;-18376.25;5009397;28;19960;-80
2023/05/13 03:48:23;;;;;;;;;;;;;;;12.77;100.00;-18371.72;5007740;28;19921;-80
2023/05/13 03:50:48;;;;;;;;;;;;;;;12.80;100.00;-18372.53;5035028;28;19925;-80
2023/05/13 03:53:14;;;;;;;;;;;;;;;12.88;100.00;-18374.75;5003147;28;19917;-79
2023/05/13 03:55:40;;;;;;;;;;;;;;;12.85;100.00;-18373.78;5003350;28;19948;-80
2023/05/13 03:58:13;;;;;;;;;;;;;;;12.81;100.00;-18372.81;5007973;28;19921;-80
2023/05/13 04:00:38;;;;;;;;;;;;;;;12.82;100.00;-18372.97;5004830;28;20339;-80
2023/05/13 04:03:03;;;;;;;;;;;;;;;12.64;100.00;-18368.16;5005128;28;20004;-80
2023/05/13 04:05:28;;;;;;;;;;;;;;;12.15;100.00;-18355.00;5002145;28;20011;-80
2023/05/13 04:07:54;;;;;;;;;;;;;;;12.23;100.00;-18357.19;5007533;28;20307;-80
2023/05/13 04:10:19;;;;;;;;;;;;;;;12.11;100.00;-18354.03;5008621;28;19918;-80
2023/05/13 04:12:44;;;;;;;;;;;;;;;12.33;100.00;-18359.78;5005647;28;19948;-80
2023/05/13 04:15:10;;;;;;;;;;;;;;;12.33;100.00;-18359.94;5005302;28;19920;-80
2023/05/13 04:17:35;;;;;;;;;;;;;;;12.45;100.00;-18363.09;5007194;28;19948;-80
2023/05/13 04:20:00;;;;;;;;;;;;;;;12.56;100.00;-18365.97;5007341;28;19925;-80
2023/05/13 04:22:25;;;;;;;;;;;;;;;12.54;100.00;-18365.56;5004844;28;19922;-80
2023/05/13 04:24:55;;;;;;;;;;;;;;;12.71;100.00;-18369.94;5005478;28;20012;-80
2023/05/13 04:27:20;;;;;;;;;;;;;;;12.49;100.00;-18364.03;5024247;28;19949;-80
2023/05/13 04:29:45;;;;;;;;;;;;;;;12.46;100.00;-18363.22;5003738;28;19960;-80
2023/05/13 04:32:14;;;;;;;;;;;;;;;12.65;100.00;-18368.44;5005894;28;19925;-79
2023/05/13 04:34:39;;;;;;;;;;;;;;;12.75;100.00;-18371.19;5004747;28;19940;-79
2023/05/13 04:37:05;;;;;;;;;;;;;;;12.93;100.00;-18375.97;5002228;28;19922;-79
2023/05/13 04:39:30;;;;;;;;;;;;;;;12.78;100.00;-18372.00;4999312;28;20612;-79
2023/05/13 04:41:55;;;;;;;;;;;;;;;12.79;100.00;-18372.28;5003324;28;20389;-79
2023/05/13 04:44:20;;;;;;;;;;;;;;;12.80;100.00;-18372.41;5004870;28;19939;-80
2023/05/13 04:46:45;;;;;;;;;;;;;;;12.82;100.00;-18372.97;5005970;28;20373;-80
2023/05/13 04:49:11;;;;;;;;;;;;;;;12.92;100.00;-18375.56;4995773;28;19956;-80
2023/05/13 04:51:36;;;;;;;;;;;;;;;13.20;100.00;-18383.22;5007337;28;20382;-80
2023/05/13 04:54:01;;;;;;;;;;;;;;;13.36;100.00;-18387.34;4994636;28;19944;-80
2023/05/13 04:56:26;;;;;;;;;;;;;;;13.10;100.00;-18380.50;5002553;28;19960;-80
2023/05/13 04:58:52;;;;;;;;;;;;;;;13.14;100.00;-18381.59;5036211;28;19928;-80
2023/05/13 05:01:17;;;;;;;;;;;;;;;13.38;100.00;-18387.91;5001471;28;19929;-80
2023/05/13 05:03:42;;;;;;;;;;;;;;;13.38;100.00;-18387.91;4999445;28;20024;-80
2023/05/13 05:06:07;;;;;;;;;;;;;;;13.63;100.00;-18394.75;5006325;28;19961;-81
2023/05/13 05:08:33;;;;;;;;;;;;;;;13.74;100.00;-18397.75;5027423;28;19921;-81
2023/05/13 05:10:58;;;;;;;;;;;;;;;13.49;100.00;-18390.91;5009032;28;20388;-81
2023/05/13 05:13:24;;;;;;;;;;;;;;;13.66;100.00;-18395.44;5010423;28;19921;-81
2023/05/13 05:15:49;;;;;;;;;;;;;;;13.80;100.00;-18399.13;5014042;28;19917;-81
2023/05/13 05:18:14;;;;;;;;;;;;;;;14.00;100.00;-18404.75;5043362;28;19945;-82
2023/05/13 05:20:39;;;;;;;;;;;;;;;14.07;100.00;-18406.53;5002281;28;19937;-81
2023/05/13 05:23:06;;;;;;;;;;;;;;;14.19;100.00;-18409.69;5012641;28;19987;-82
2023/05/13 05:25:31;;;;;;;;;;;;;;;14.14;100.00;-18408.31;5016534;28;19923;-82
2023/05/13 05:27:56;;;;;;;;;;;;;;;14.32;100.00;-18413.09;5010998;28;19957;-82
2023/05/13 05:30:22;;;;;;;;;;;;;;;14.43;100.00;-18416.13;5007944;28;19914;-81
2023/05/13 05:32:47;;;;;;;;;;;;;;;14.14;100.00;-18408.31;5008442;28;19913;-81
2023/05/13 05:35:14;;;;;;;;;;;;;;;14.03;100.00;-18405.31;5008750;28;20008;-81
2023/05/13 05:37:40;;;;;;;;;;;;;;;14.11;100.00;-18407.63;5005694;28;19914;-82
2023/05/13 05:40:05;;;;;;;;;;;;;;;14.20;100.00;-18409.97;5012714;28;19928;-82
2023/05/13 05:42:30;;;;;;;;;;;;;;;14.36;100.00;-18414.19;5016268;28;20425;-81
2023/05/13 05:44:56;;;;;;;;;;;;;;;14.56;100.00;-18419.69;5002083;28;19917;-82
2023/05/13 05:47:21;;;;;;;;;;;;;;;14.69;100.00;-18422.97;5018575;28;20036;-82
2023/05/13 05:49:46;;;;;;;;;;;;;;;14.61;100.00;-18420.91;5015093;28;19952;-81
2023/05/13 05:52:12;;;;;;;;;;;;;;;14.81;100.00;-18426.25;5009976;28;19918;-82
2023/05/13 05:54:37;;;;;;;;;;;;;;;14.92;100.00;-18429.25;5012845;28;19957;-82
2023/05/13 05:57:02;;;;;;;;;;;;;;;15.23;100.00;-18437.59;5019205;28;19959;-82
2023/05/13 05:59:28;;;;;;;;;;;;;;;15.09;100.00;-18433.91;5046702;28;19936;-82
2023/05/13 06:01:53;;;;;;;;;;;;;;;15.07;100.00;-18433.38;5014566;28;20040;-82
2023/05/13 06:04:18;;;;;;;;;;;;;;;15.28;100.00;-18438.84;5016866;28;19921;-82
2023/05/13 06:06:43;;;;;;;;;;;;;;;15.26;100.00;-18438.28;5016229;28;19920;-83
2023/05/13 06:09:09;;;;;;;;;;;;;;;15.34;100.00;-18440.47;5015100;28;20419;-83
2023/05/13 06:11:34;;;;;;;;;;;;;;;15.33;100.00;-18440.22;5016608;28;20030;-83
2023/05/13 06:13:59;;;;;;;;;;;;;;;15.37;100.00;-18441.31;5014187;28;19922;-82
2023/05/13 06:16:25;;;;;;;;;;;;;;;15.20;100.00;-18436.78;5015563;28;19921;-82
2023/05/13 06:18:50;;;;;;;;;;;;;;;15.50;100.00;-18444.84;5010028;28;19917;-82
2023/05/13 06:21:15;;;;;;;;;;;;;;;15.75;100.00;-18451.56;5015101;28;19970;-82
2023/05/13 06:23:41;;;;;;;;;;;;;;;15.86;100.00;-18454.44;5017950;28;19913;-82
2023/05/13 06:26:06;;;;;;;;;;;;;;;16.15;100.00;-18462.09;5016077;28;19912;-83
2023/05/13 06:28:31;;;;;;;;;;;;;;;15.93;100.00;-18456.34;5016295;28;19913;-83
2023/05/13 06:30:57;;;;;;;;;;;;;;;16.14;100.00;-18461.81;5031068;28;19940;-83
2023/05/13 06:33:22;;;;;;;;;;;;;;;16.16;100.00;-18462.38;5009186;28;19914;-83
2023/05/13 06:35:48;;;;;;;;;;;;;;;16.29;100.00;-18465.91;5014808;28;19936;-83
2023/05/13 06:38:16;;;;;;;;;;;;;;;16.07;100.00;-18460.03;5012864;28;20375;-84
2023/05/13 06:40:41;;;;;;;;;;;;;;;16.11;100.00;-18461.00;5008144;28;19917;-83
2023/05/13 06:43:07;;;;;;;;;;;;;;;16.38;100.00;-18468.25;5011667;28;19951;-83
2023/05/13 06:45:32;;;;;;;;;;;;;;;16.43;100.00;-18469.75;5013661;28;19918;-83
2023/05/13 06:48:03;;;;;;;;;;;;;;;16.49;100.00;-18471.25;5017931;28;20392;-82
2023/05/13 06:50:28;;;;;;;;;;;;;;;16.69;100.00;-18476.72;5002909;28;19914;-84
2023/05/13 06:52:54;;;;;;;;;;;;;;;17.02;100.00;-18485.31;5012896;28;19990;-84
2023/05/13 06:55:19;;;;;;;;;;;;;;;17.00;100.00;-18484.78;5013358;28;19917;-83
2023/05/13 06:57:45;;;;;;;;;;;;;;;16.89;100.00;-18482.03;5013392;28;19917;-84
2023/05/13 07:00:11;;;;;;;;;;;;;;;17.09;100.00;-18487.22;5008724;28;19924;-84
2023/05/13 07:02:36;;;;;;;;;;;;;;;17.43;100.00;-18496.25;5005930;28;19921;-84
2023/05/13 07:05:02;;;;;;;;;;;;;;;17.64;100.00;-18501.97;5014079;28;19917;-84
2023/05/13 07:07:27;;;;;;;;;;;;;;;17.78;100.00;-18505.66;5006015;28;19918;-84
2023/05/13 07:09:52;;;;;;;;;;;;;;;17.76;100.00;-18505.25;5011266;28;19918;-83
2023/05/13 07:12:17;;;;;;;;;;;;;;;17.71;100.00;-18503.75;5014207;28;19944;-83
2023/05/13 07:14:44;;;;;;;;;;;;;;;17.90;100.00;-18508.81;5030104;28;19917;-83
2023/05/13 07:17:09;;;;;;;;;;;;;;;17.87;100.00;-18508.13;5006400;28;19917;-83
2023/05/13 07:19:34;;;;;;;;;;;;;;;17.94;100.00;-18509.88;5012666;28;20378;-83
2023/05/13 07:21:59;;;;;;;;;;;;;;;17.87;100.00;-18508.13;5012633;28;19922;-83
2023/05/13 07:24:25;;;;;;;;;;;;;;;17.88;100.00;-18508.25;5016461;28;19922;-83
2023/05/13 07:26:50;;;;;;;;;;;;;;;18.03;100.00;-18512.47;5014893;28;19914;-83
2023/05/13 07:29:15;;;;;;;;;;;;;;;18.32;100.00;-18519.97;5017458;28;19913;-83
2023/05/13 07:31:40;;;;;;;;;;;;;;;18.28;100.00;-18519.03;5031035;28;19948;-83
2023/05/13 07:34:06;;;;;;;;;;;;;;;18.37;100.00;-18521.34;5014779;28;19917;-83
2023/05/13 07:36:31;;;;;;;;;;;;;;;18.49;100.00;-18524.75;5012900;28;20404;-84
2023/05/13 07:38:56;;;;;;;;;;;;;;;18.55;100.00;-18526.25;5026982;28;20594;-84
2023/05/13 07:41:22;;;;;;;;;;;;;;;18.62;100.00;-18528.03;5013772;28;19922;-83
2023/05/13 07:43:47;;;;;;;;;;;;;;;19.18;100.00;-18543.03;5015894;28;19917;-83
2023/05/13 07:46:12;;;;;;;;;;;;;;;18.86;100.00;-18534.44;5012380;28;20400;-83
2023/05/13 07:48:37;;;;;;;;;;;;;;;19.16;100.00;-18542.47;5011793;28;19920;-83
2023/05/13 07:51:03;;;;;;;;;;;;;;;19.14;100.00;-18542.06;5009351;28;20295;-84
2023/05/13 07:53:29;;;;;;;;;;;;;;;19.19;100.00;-18543.31;5016514;28;20400;-84
2023/05/13 07:55:54;;;;;;;;;;;;;;;19.13;100.00;-18541.66;5030019;28;19921;-84
2023/05/13 07:58:19;;;;;;;;;;;;;;;19.31;100.00;-18546.44;5015408;28;19913;-83
2023/05/13 08:00:45;;;;;;;;;;;;;;;19.29;100.00;-18545.88;5015577;28;20149;-84
2023/05/13 08:03:11;;;;;;;;;;;;;;;19.28;100.00;-18545.75;5014050;28;19921;-84
2023/05/13 08:05:36;;;;;;;;;;;;;;;19.35;100.00;-18547.66;5015633;28;19944;-84
2023/05/13 08:08:02;;;;;;;;;;;;;;;19.38;100.00;-18548.34;5011751;28;19921;-83
2023/05/13 08:10:28;;;;;;;;;;;;;;;19.39;100.00;-18548.59;5011450;28;20396;-84
2023/05/13 08:12:56;;;;;;;;;;;;;;;19.52;100.00;-18552.03;5044376;28;19921;-83
2023/05/13 08:15:21;;;;;;;;;;;;;;;19.59;100.00;-18553.91;5005668;28;19913;-84
2023/05/13 08:17:47;;;;;;;;;;;;;;;19.73;100.00;-18557.59;5013304;28;20352;-84
2023/05/13 08:20:14;;;;;;;;;;;;;;;19.80;100.00;-18559.66;5030134;22;19921;-79
2023/05/13 08:22:39;;;;;;;;;;;;;;;19.82;100.00;-18560.06;5000346;28;19930;-84
2023/05/13 08:25:04;;;;;;;;;;;;;;;19.93;100.00;-18562.91;5003392;28;19918;-83
2023/05/13 08:27:30;;;;;;;;;;;;;;;20.02;100.00;-18565.38;4999608;28;20277;-80
2023/05/13 08:29:55;;;;;;;;;;;;;;;20.16;100.00;-18569.19;4996709;28;19918;-84
2023/05/13 08:32:20;;;;;;;;;;;;;;;20.47;100.00;-18577.34;4997498;28;19945;-84
2023/05/13 08:34:45;;;;;;;;;;;;;;;20.45;92.47;-18576.94;5006962;28;19964;-82
2023/05/13 08:37:11;;;;;;;;;;;;;;;20.49;95.37;-18578.03;5021878;28;19922;-83
2023/05/13 08:39:37;;;;;;;;;;;;;;;20.56;93.40;-18579.78;5001413;28;19925;-84
2023/05/13 08:42:03;;;;;;;;;;;;;;;20.73;97.21;-18584.41;4987749;28;19921;-81
2023/05/13 08:44:28;;;;;;;;;;;;;;;20.98;98.59;-18590.81;5009362;28;20300;-81
2023/05/13 08:47:05;;;;;;;;;;;;;;;20.70;98.15;-18583.47;4996185;28;19918;-83
2023/05/13 08:49:31;;;;;;;;;;;;;;;20.59;95.40;-18580.63;4989917;28;19936;-81
2023/05/13 08:51:57;;;;;;;;;;;;;;;20.64;97.33;-18581.84;5002447;28;19918;-82
2023/05/13 08:54:23;;;;;;;;;;;;;;;20.87;97.45;-18588.09;4999943;28;19924;-81
2023/05/13 08:56:48;;;;;;;;;;;;;;;21.12;93.85;-18594.75;4987941;28;19921;-83
2023/05/13 08:59:17;;;;;;;;;;;;;;;21.25;86.52;-18598.16;4982027;28;19926;-80
2023/05/13 09:01:43;;;;;;;;;;;;;;;21.26;91.95;-18598.44;4990033;28;19952;-83
2023/05/13 09:04:09;;;;;;;;;;;;;;;21.28;90.41;-18598.84;4983658;28;19961;-82
2023/05/13 09:06:34;;;;;;;;;;;;;;;21.47;88.13;-18604.00;4987701;28;19926;-79
2023/05/13 09:09:01;;;;;;;;;;;;;;;21.71;86.68;-18610.41;4982771;28;20466;-82
2023/05/13 09:11:27;;;;;;;;;;;;;;;21.97;85.92;-18617.19;4966955;28;20057;-82
2023/05/13 09:13:59;;;;;;;;;;;;;;;22.17;75.73;-18622.50;4975142;28;19922;-82
2023/05/13 09:16:25;;;;;;;;;;;;;;;22.00;71.97;-18618.13;4974685;28;20451;-82
2023/05/13 09:18:55;;;;;;;;;;;;;;;21.75;75.01;-18611.47;4984468;28;19961;-83
2023/05/13 09:21:21;;;;;;;;;;;;;;;21.90;75.91;-18615.28;4973512;28;20004;-83
2023/05/13 09:23:46;;;;;;;;;;;;;;;21.95;77.43;-18616.78;4994433;28;20008;-82
2023/05/13 09:26:26;;;;;;;;;;;;;;;22.05;71.03;-18619.38;4989627;28;19956;-82
2023/05/13 09:29:11;;;;;;;;;;;;;;;22.41;73.59;-18628.88;4988470;28;19918;-83
2023/05/13 09:31:36;;;;;;;;;;;;;;;22.53;68.75;-18632.13;5003012;28;19917;-81
2023/05/13 09:34:01;;;;;;;;;;;;;;;22.70;66.64;-18636.75;4985183;28;19964;-80
2023/05/13 09:36:27;;;;;;;;;;;;;;;22.52;78.63;-18632.00;4993551;28;19921;-83
2023/05/13 09:38:53;;;;;;;;;;;;;;;22.63;63.62;-18634.84;4992771;28;19922;-84
2023/05/13 09:41:19;;;;;;;;;;;;;;;22.46;63.91;-18630.22;5011560;28;20420;-77
2023/05/13 09:43:44;;;;;;;;;;;;;;;22.59;64.14;-18633.75;4989912;28;19926;-83
2023/05/13 09:46:09;;;;;;;;;;;;;;;22.81;67.15;-18639.47;4991579;28;19944;-82
2023/05/13 09:48:36;;;;;;;;;;;;;;;23.15;62.19;-18648.69;4992406;28;19948;-84
2023/05/13 09:51:02;;;;;;;;;;;;;;;23.00;60.52;-18644.50;4992810;28;19918;-81
2023/05/13 09:53:30;;;;;;;;;;;;;;;23.30;70.25;-18652.50;4990013;28;19924;-85
2023/05/13 09:56:00;;;;;;;;;;;;;;;23.26;55.48;-18651.41;4988659;28;19917;-79
2023/05/13 09:58:29;;;;;;;;;;;;;;;23.46;58.72;-18656.84;4990203;28;19918;-81
2023/05/13 10:00:55;;;;;;;;;;;;;;;23.58;56.03;-18659.94;4992051;28;19954;-83
2023/05/13 10:03:22;;;;;;;;;;;;;;;23.74;60.76;-18664.16;4993165;28;19955;-79
2023/05/13 10:05:48;;;;;;;;;;;;;;;23.80;59.91;-18665.78;4994108;28;19913;-81
2023/05/13 10:08:14;;;;;;;;;;;;;;;23.90;58.55;-18668.50;5000810;28;20296;-82
2023/05/13 10:10:40;;;;;;;;;;;;;;;23.87;53.06;-18667.69;5009821;28;19914;-84
2023/05/13 10:13:12;;;;;;;;;;;;;;;23.85;48.03;-18667.28;4985548;28;20016;-83
2023/05/13 10:15:46;;;;;;;;;;;;;;;23.86;50.77;-18667.53;4996089;28;19918;-83
2023/05/13 10:18:12;;;;;;;;;;;;;;;23.91;47.21;-18668.63;4991794;28;19913;-80
2023/05/13 10:20:37;;;;;;;;;;;;;;;24.01;50.45;-18671.47;4992377;28;20300;-84
2023/05/13 10:23:03;;;;;;;;;;;;;;;23.83;50.37;-18666.59;4994062;28;19922;-83
2023/05/13 10:25:29;;;;;;;;;;;;;;;23.75;48.27;-18664.56;4997288;28;20611;-82
2023/05/13 10:27:55;;;;;;;;;;;;;;;23.98;48.36;-18670.66;5014452;28;20268;-82
2023/05/13 10:30:25;;;;;;;;;;;;;;;24.00;50.36;-18671.06;4991501;28;19979;-82
2023/05/13 10:32:50;;;;;;;;;;;;;;;23.97;46.08;-18670.25;4993789;28;19922;-82
2023/05/13 10:35:17;;;;;;;;;;;;;;;23.99;47.42;-18670.94;4991711;28;20020;-86
2023/05/13 10:37:42;;;;;;;;;;;;;;;23.96;46.58;-18670.13;4994633;28;19952;-83
2023/05/13 10:40:14;;;;;;;;;;;;;;;23.93;44.71;-18669.19;4991948;28;20389;-83
2023/05/13 10:42:41;;;;;;;;;;;;;;;23.80;43.60;-18665.78;4989917;28;20392;-80
2023/05/13 10:45:07;;;;;;;;;;;;;;;23.96;43.32;-18670.13;4988175;28;20007;-83
2023/05/13 10:47:32;;;;;;;;;;;;;;;24.05;44.06;-18672.56;4987046;28;20631;-81
2023/05/13 10:50:03;;;;;;;;;;;;;;;24.13;44.58;-18674.47;4988710;28;19917;-80
2023/05/13 10:52:41;;;;;;;;;;;;;;;24.22;41.77;-18676.91;4989235;28;20033;-83
2023/05/13 10:55:13;;;;;;;;;;;;;;;24.19;40.79;-18676.09;4990122;28;19964;-80
2023/05/13 10:57:38;;;;;;;;;;;;;;;24.52;42.39;-18684.91;4988741;28;19921;-82
2023/05/13 11:00:30;;;;;;;;;;;;;;;23.90;44.18;-18668.38;5005690;28;20431;-82
2023/05/13 11:02:55;;;;;;;;;;;;;;;24.13;44.51;-18674.47;4987503;28;20024;-80
2023/05/13 11:05:20;;;;;;;;;;;;;;;24.38;42.81;-18681.22;4991290;28;20086;-79
2023/05/13 11:07:55;;;;;;;;;;;;;;;24.29;42.71;-18678.94;5004454;28;19921;-81
2023/05/13 11:10:29;;;;;;;;;;;;;;;24.40;46.08;-18681.78;4990303;28;20297;-82
2023/05/13 11:13:10;;;;;;;;;;;;;;;24.56;43.23;-18685.97;4991118;28;19926;-79
2023/05/13 11:15:43;;;;;;;;;;;;;;;24.61;42.68;-18687.19;4989093;28;20297;-79
2023/05/13 11:18:08;;;;;;;;;;;;;;;24.58;42.47;-18686.38;4986723;28;19917;-80
2023/05/13 11:20:36;;;;;;;;;;;;;;;24.34;42.51;-18680.16;4987212;28;20717;-81
2023/05/13 11:23:01;;;;;;;;;;;;;;;24.52;42.93;-18685.03;4983487;28;20512;-81
2023/05/13 11:25:27;;;;;;;;;;;;;;;24.47;40.90;-18683.53;4993642;28;19920;-80
2023/05/13 11:27:52;;;;;;;;;;;;;;;24.13;39.14;-18674.47;4995485;28;19914;-80
2023/05/13 11:30:21;;;;;;;;;;;;;;;24.34;40.27;-18680.16;4994049;28;20389;-80
2023/05/13 11:32:59;;;;;;;;;;;;;;;24.25;40.84;-18677.84;4996225;28;19920;-80
2023/05/13 11:35:25;;;;;;;;;;;;;;;24.52;40.99;-18684.91;4995201;28;20066;-80
2023/05/13 11:37:51;;;;;;;;;;;;;;;24.46;40.40;-18683.41;4995553;28;19914;-80
2023/05/13 11:40:20;;;;;;;;;;;;;;;24.74;38.36;-18690.72;4991087;28;19914;-80
2023/05/13 11:42:45;;;;;;;;;;;;;;;25.04;39.28;-18698.72;4995420;28;20395;-80
2023/05/13 11:45:11;;;;;;;;;;;;;;;25.11;39.85;-18700.47;4994178;28;19941;-80
2023/05/13 11:47:36;;;;;;;;;;;;;;;25.13;40.90;-18701.00;4995519;28;20336;-80
2023/05/13 11:50:02;;;;;;;;;;;;;;;25.21;40.13;-18703.31;5009134;28;19928;-80
2023/05/13 11:52:28;;;;;;;;;;;;;;;25.31;40.94;-18705.88;4999721;28;20389;-80
2023/05/13 11:54:54;;;;;;;;;;;;;;;25.19;39.77;-18702.63;5002041;28;19964;-81
2023/05/13 11:57:20;;;;;;;;;;;;;;;25.42;41.58;-18708.72;5003040;28;19924;-81
2023/05/13 11:59:52;;;;;;;;;;;;;;;25.50;40.59;-18710.75;5001557;28;19921;-81
2023/05/13 12:02:21;;;;;;;;;;;;;;;25.35;37.94;-18706.84;5002210;28;19918;-80
2023/05/13 12:04:46;;;;;;;;;;;;;;;25.45;39.33;-18709.53;4997284;28;19918;-82
2023/05/13 12:07:12;;;;;;;;;;;;;;;25.28;39.75;-18704.94;4987951;28;20008;-82
2023/05/13 12:09:37;;;;;;;;;;;;;;;25.61;38.72;-18713.75;4984546;28;20488;-82
2023/05/13 12:12:02;;;;;;;;;;;;;;;25.66;41.55;-18715.09;4993188;28;19917;-81
2023/05/13 12:14:28;;;;;;;;;;;;;;;25.88;40.52;-18721.03;4991990;28;19958;-82
2023/05/13 12:16:54;;;;;;;;;;;;;;;25.94;40.52;-18722.41;4990973;28;19929;-81
2023/05/13 12:19:19;;;;;;;;;;;;;;;26.19;39.21;-18729.03;4989091;28;19917;-83
2023/05/13 12:21:44;;;;;;;;;;;;;;;25.60;38.10;-18713.59;4990432;28;19998;-81
2023/05/13 12:24:16;;;;;;;;;;;;;;;25.12;38.80;-18700.88;4991480;28;19914;-83
2023/05/13 12:26:42;;;;;;;;;;;;;;;24.64;39.52;-18688.16;4994096;28;19914;-82